createdAt,value
2022-11-03T00:01:38.478Z,7.20
2022-11-03T00:04:07.863Z,7.20
2022-11-03T00:06:38.222Z,7.30
2022-11-03T00:09:08.328Z,7.30
2022-11-03T00:11:38.057Z,7.30
2022-11-03T00:14:07.733Z,7.30
2022-11-03T00:16:36.462Z,7.30
2022-11-03T00:19:05.593Z,7.40
2022-11-03T00:21:34.595Z,7.40
2022-11-03T00:24:05.322Z,7.40
2022-11-03T00:26:35.374Z,7.40
2022-11-03T00:29:08.027Z,7.50
2022-11-03T00:31:38.335Z,7.50
2022-11-03T00:34:08.439Z,7.50
2022-11-03T00:36:38.393Z,7.50
2022-11-03T00:39:09.793Z,7.60
2022-11-03T00:41:39.159Z,7.60
2022-11-03T00:44:08.539Z,7.70
2022-11-03T00:46:37.093Z,7.80
2022-11-03T00:49:06.768Z,7.80
2022-11-03T00:51:36.301Z,7.80
2022-11-03T00:54:07.583Z,7.90
2022-11-03T00:56:37.702Z,7.90
2022-11-03T00:59:07.652Z,7.90
2022-11-03T01:01:43.984Z,7.90
2022-11-03T01:04:31.720Z,7.90
2022-11-03T01:07:01.662Z,8.00
2022-11-03T01:09:33.112Z,7.90
2022-11-03T01:12:04.167Z,7.90
2022-11-03T01:14:35.395Z,8.00
2022-11-03T01:17:06.164Z,8.00
2022-11-03T01:19:34.961Z,8.00
2022-11-03T01:22:06.465Z,8.00
2022-11-03T01:24:40.546Z,8.10
2022-11-03T01:27:09.395Z,8.10
2022-11-03T01:29:37.802Z,8.10
2022-11-03T01:32:06.975Z,8.10
2022-11-03T01:34:35.653Z,8.20
2022-11-03T01:37:04.383Z,8.10
2022-11-03T01:39:33.012Z,8.10
2022-11-03T01:42:03.218Z,8.10
2022-11-03T01:44:34.984Z,8.10
2022-11-03T01:47:14.512Z,8.00
2022-11-03T01:49:48.179Z,8.00
2022-11-03T01:52:21.312Z,8.00
2022-11-03T01:54:56.171Z,8.00
2022-11-03T01:57:30.214Z,8.00
2022-11-03T02:00:00.508Z,8.00
2022-11-03T02:02:29.679Z,8.10
2022-11-03T02:05:02.034Z,8.10
2022-11-03T02:07:37.163Z,8.10
2022-11-03T02:10:06.624Z,8.10
2022-11-03T02:12:37.015Z,8.20
2022-11-03T02:15:09.902Z,8.30
2022-11-03T02:17:38.879Z,8.20
2022-11-03T02:20:11.309Z,8.20
2022-11-03T02:23:01.795Z,8.20
2022-11-03T02:25:39.022Z,8.20
2022-11-03T02:28:08.024Z,8.20
2022-11-03T02:30:41.275Z,8.30
2022-11-03T02:33:22.064Z,8.30
2022-11-03T02:35:56.495Z,8.30
2022-11-03T02:38:28.745Z,8.30
2022-11-03T02:41:05.915Z,8.30
2022-11-03T02:43:35.121Z,8.30
2022-11-03T02:46:09.105Z,8.20
2022-11-03T02:48:38.531Z,8.20
2022-11-03T02:51:07.062Z,8.20
2022-11-03T02:53:41.493Z,8.20
2022-11-03T02:56:16.770Z,8.10
2022-11-03T02:58:53.534Z,8.10
2022-11-03T03:01:27.821Z,8.10
2022-11-03T03:03:59.134Z,8.00
2022-11-03T03:06:32.084Z,7.90
2022-11-03T03:09:02.235Z,7.80
2022-11-03T03:11:39.151Z,7.80
2022-11-03T03:14:16.995Z,7.70
2022-11-03T03:16:53.355Z,7.60
2022-11-03T03:19:29.181Z,7.60
2022-11-03T03:22:01.657Z,7.60
2022-11-03T03:24:37.734Z,7.60
2022-11-03T03:27:13.153Z,7.50
2022-11-03T03:29:46.445Z,7.50
2022-11-03T03:32:19.943Z,7.50
2022-11-03T03:34:51.068Z,7.50
2022-11-03T03:37:20.794Z,7.50
2022-11-03T03:39:53.909Z,7.40
2022-11-03T03:42:27.058Z,7.40
2022-11-03T03:44:56.988Z,7.40
2022-11-03T03:47:29.685Z,7.30
2022-11-03T03:49:58.813Z,7.30
2022-11-03T03:52:28.163Z,7.30
2022-11-03T03:54:57.817Z,7.30
2022-11-03T03:57:31.789Z,7.30
2022-11-03T04:00:00.262Z,7.20
2022-11-03T04:02:28.841Z,7.20
2022-11-03T04:04:58.667Z,7.30
2022-11-03T04:07:44.676Z,7.20
2022-11-03T04:10:13.175Z,7.20
2022-11-03T04:13:01.686Z,7.20
2022-11-03T04:15:48.004Z,7.20
2022-11-03T04:18:35.274Z,7.20
2022-11-03T04:21:21.188Z,7.10
2022-11-03T04:23:49.854Z,7.10
2022-11-03T04:26:19.944Z,7.00
2022-11-03T04:28:50.675Z,7.00
2022-11-03T04:31:20.575Z,7.00
2022-11-03T04:33:49.644Z,7.00
2022-11-03T04:36:20.913Z,7.00
2022-11-03T04:38:50.235Z,7.00
2022-11-03T04:41:21.499Z,7.00
2022-11-03T04:43:53.114Z,7.00
2022-11-03T04:46:26.817Z,7.00
2022-11-03T04:48:55.892Z,7.00
2022-11-03T04:51:27.723Z,7.00
2022-11-03T04:53:57.803Z,7.00
2022-11-03T04:56:26.864Z,7.00
2022-11-03T04:58:56.892Z,7.00
2022-11-03T05:01:26.366Z,7.00
2022-11-03T05:03:56.010Z,7.00
2022-11-03T05:06:25.734Z,6.90
2022-11-03T05:08:57.120Z,7.00
2022-11-03T05:11:31.944Z,6.90
2022-11-03T05:14:04.843Z,6.90
2022-11-03T05:16:33.905Z,7.00
2022-11-03T05:19:02.403Z,7.00
2022-11-03T05:21:31.103Z,7.00
2022-11-03T05:24:03.673Z,7.00
2022-11-03T05:26:35.605Z,7.00
2022-11-03T05:29:12.989Z,7.10
2022-11-03T05:31:43.118Z,7.10
2022-11-03T05:34:29.617Z,7.10
2022-11-03T05:36:59.827Z,7.10
2022-11-03T05:39:31.677Z,7.20
2022-11-03T05:42:01.380Z,7.30
2022-11-03T05:44:37.098Z,7.30
2022-11-03T05:47:15.307Z,7.30
2022-11-03T05:49:43.867Z,7.40
2022-11-03T05:52:21.335Z,7.40
2022-11-03T05:54:51.468Z,7.50
2022-11-03T05:57:20.888Z,7.60
2022-11-03T05:59:52.799Z,7.60
2022-11-03T06:02:34.760Z,7.60
2022-11-03T06:05:03.745Z,7.50
2022-11-03T06:07:33.673Z,7.60
2022-11-03T06:10:02.320Z,7.50
2022-11-03T06:12:32.109Z,7.50
2022-11-03T06:15:02.049Z,7.50
2022-11-03T06:17:30.777Z,7.50
2022-11-03T06:20:01.462Z,7.40
2022-11-03T06:22:32.728Z,7.40
2022-11-03T06:25:02.949Z,7.40
2022-11-03T06:27:33.317Z,7.40
2022-11-03T06:30:04.977Z,7.40
2022-11-03T06:32:35.368Z,7.50
2022-11-03T06:35:03.848Z,7.50
2022-11-03T06:37:34.356Z,7.50
2022-11-03T06:40:24.917Z,7.50
2022-11-03T06:42:55.266Z,7.50
2022-11-03T06:45:27.168Z,7.50
2022-11-03T06:47:56.017Z,7.50
2022-11-03T06:50:28.268Z,7.60
2022-11-03T06:52:58.400Z,7.50
2022-11-03T06:55:29.437Z,7.50
2022-11-03T06:58:04.336Z,7.50
2022-11-03T07:00:41.039Z,7.60
2022-11-03T07:03:16.248Z,7.60
2022-11-03T07:05:46.398Z,7.70
2022-11-03T07:08:23.767Z,7.70
2022-11-03T07:10:58.482Z,7.70
2022-11-03T07:13:28.866Z,7.70
2022-11-03T07:15:58.717Z,7.80
2022-11-03T07:18:30.838Z,7.80
2022-11-03T07:21:00.328Z,7.90
2022-11-03T07:23:31.931Z,8.00
2022-11-03T07:26:02.716Z,8.00
2022-11-03T07:28:36.759Z,8.10
2022-11-03T07:31:17.312Z,8.20
2022-11-03T07:33:46.179Z,8.30
2022-11-03T07:36:20.843Z,8.50
2022-11-03T07:38:53.170Z,8.50
2022-11-03T07:41:24.411Z,8.60
2022-11-03T07:43:58.567Z,8.60
2022-11-03T07:46:28.851Z,8.60
2022-11-03T07:48:58.794Z,8.70
2022-11-03T07:51:29.950Z,8.80
2022-11-03T07:54:04.527Z,8.90
2022-11-03T07:56:36.865Z,9.00
2022-11-03T07:59:16.378Z,9.10
2022-11-03T08:01:49.379Z,9.20
2022-11-03T08:04:21.460Z,9.40
2022-11-03T08:06:50.267Z,9.50
2022-11-03T08:09:19.150Z,9.70
2022-11-03T08:11:47.758Z,9.70
2022-11-03T08:14:16.367Z,9.90
2022-11-03T08:16:46.648Z,10.10
2022-11-03T08:19:15.179Z,10.10
2022-11-03T08:21:43.656Z,10.20
2022-11-03T08:24:12.398Z,10.30
2022-11-03T08:26:40.883Z,10.40
2022-11-03T08:29:10.127Z,10.60
2022-11-03T08:31:38.688Z,10.70
2022-11-03T08:34:11.717Z,10.70
2022-11-03T08:36:39.955Z,10.70
2022-11-03T08:39:08.459Z,10.80
2022-11-03T08:41:36.947Z,10.80
2022-11-03T08:44:05.728Z,10.80
2022-11-03T08:46:34.249Z,10.80
2022-11-03T08:49:02.805Z,10.90
2022-11-03T08:51:32.737Z,11.10
2022-11-03T08:54:01.307Z,11.30
2022-11-03T08:56:30.342Z,11.60
2022-11-03T08:58:58.859Z,11.80
2022-11-03T09:01:27.405Z,11.90
2022-11-03T09:03:55.945Z,12.10
2022-11-03T09:06:24.817Z,12.20
2022-11-03T09:11:43.182Z,12.50
2022-11-03T09:14:11.808Z,12.50
2022-11-03T09:16:40.326Z,12.50
2022-11-03T09:19:08.907Z,12.60
2022-11-03T09:21:37.658Z,12.70
2022-11-03T09:24:08.557Z,12.70
2022-11-03T09:26:38.459Z,12.70
2022-11-03T09:29:06.915Z,12.80
2022-11-03T09:31:35.451Z,13.00
2022-11-03T09:34:04.307Z,13.30
2022-11-03T09:36:32.797Z,13.90
2022-11-03T09:39:01.277Z,14.40
2022-11-03T09:41:53.937Z,14.90
2022-11-03T09:44:21.257Z,15.20
2022-11-03T09:46:56.832Z,15.30
2022-11-03T09:49:27.131Z,15.50
2022-11-03T09:51:57.137Z,15.90
2022-11-03T09:54:27.010Z,16.40
2022-11-03T09:56:59.018Z,16.50
2022-11-03T09:59:27.496Z,16.60
2022-11-03T10:01:56.172Z,16.80
2022-11-03T10:04:28.527Z,16.80
2022-11-03T10:06:58.458Z,16.40
2022-11-03T10:09:30.268Z,16.30
2022-11-03T10:12:00.242Z,16.20
2022-11-03T10:14:28.770Z,16.20
2022-11-03T10:17:00.602Z,16.20
2022-11-03T10:19:29.108Z,16.30
2022-11-03T10:21:57.627Z,16.40
2022-11-03T10:24:27.027Z,16.40
2022-11-03T10:26:56.324Z,16.40
2022-11-03T10:29:27.427Z,16.40
2022-11-03T10:31:58.722Z,16.50
2022-11-03T10:34:37.782Z,16.70
2022-11-03T10:37:22.098Z,17.00
2022-11-03T10:39:52.218Z,17.20
2022-11-03T10:42:24.798Z,17.30
2022-11-03T10:44:56.468Z,17.40
2022-11-03T10:47:34.377Z,17.50
2022-11-03T10:50:23.428Z,17.50
2022-11-03T10:52:52.906Z,18.00
2022-11-03T10:55:25.237Z,18.50
2022-11-03T10:57:55.862Z,18.80
2022-11-03T11:00:26.566Z,19.10
2022-11-03T11:03:00.817Z,19.80
2022-11-03T11:05:29.426Z,19.60
2022-11-03T11:07:57.971Z,19.70
2022-11-03T11:10:32.279Z,19.50
2022-11-03T11:13:23.252Z,19.20
2022-11-03T11:15:55.148Z,18.90
2022-11-03T11:19:13.147Z,18.10
2022-11-03T11:22:18.448Z,17.50
2022-11-03T11:25:00.883Z,17.00
2022-11-03T11:27:58.713Z,16.60
2022-11-03T11:31:04.197Z,16.20
2022-11-03T11:33:37.245Z,15.80
2022-11-03T11:36:07.140Z,15.60
2022-11-03T11:38:58.089Z,15.60
2022-11-03T11:42:04.197Z,15.50
2022-11-03T11:45:00.475Z,15.40
2022-11-03T11:47:48.047Z,15.40
2022-11-03T11:50:38.835Z,15.30
2022-11-03T11:53:14.660Z,15.50
2022-11-03T11:55:50.660Z,15.60
2022-11-03T11:58:23.948Z,15.60
2022-11-03T12:00:59.038Z,15.60
2022-11-03T12:03:31.242Z,15.50
2022-11-03T12:06:01.451Z,15.40
2022-11-03T12:08:31.850Z,15.20
2022-11-03T12:11:03.146Z,15.10
2022-11-03T12:13:47.149Z,15.00
2022-11-03T12:16:32.618Z,14.80
2022-11-03T12:19:34.636Z,14.70
2022-11-03T12:22:05.594Z,14.70
2022-11-03T12:24:52.028Z,14.80
2022-11-03T12:27:42.424Z,15.10
2022-11-03T12:30:19.860Z,15.30
2022-11-03T12:32:48.695Z,15.60
2022-11-03T12:35:17.389Z,15.80
2022-11-03T12:37:47.357Z,16.10
2022-11-03T12:40:15.999Z,16.20
2022-11-03T12:42:44.470Z,16.20
2022-11-03T12:45:14.485Z,16.20
2022-11-03T12:47:43.023Z,16.10
2022-11-03T12:50:11.817Z,16.00
2022-11-03T12:52:40.297Z,16.00
2022-11-03T12:55:10.973Z,15.90
2022-11-03T12:57:39.637Z,15.80
2022-11-03T13:00:10.203Z,15.90
2022-11-03T13:02:39.037Z,15.90
2022-11-03T13:05:08.155Z,15.90
2022-11-03T13:07:36.777Z,15.80
2022-11-03T13:10:05.799Z,15.70
2022-11-03T13:12:36.907Z,15.60
2022-11-03T13:15:07.961Z,15.60
2022-11-03T13:18:06.996Z,15.50
2022-11-03T13:20:28.092Z,15.50
2022-11-03T13:22:56.808Z,15.30
2022-11-03T13:25:25.512Z,15.20
2022-11-03T13:27:55.706Z,15.00
2022-11-03T13:30:26.117Z,15.00
2022-11-03T13:32:55.057Z,15.00
2022-11-03T13:35:24.305Z,14.90
2022-11-03T13:37:52.892Z,14.90
2022-11-03T13:43:11.981Z,14.80
2022-11-03T13:45:40.679Z,14.70
2022-11-03T13:51:00.348Z,14.50
2022-11-03T13:56:21.906Z,14.40
2022-11-03T14:01:41.700Z,14.30
2022-11-03T14:06:59.588Z,14.20
2022-11-03T14:09:31.155Z,14.10
2022-11-03T14:12:13.493Z,14.10
2022-11-03T14:14:43.616Z,14.00
2022-11-03T14:17:12.431Z,13.90
2022-11-03T14:19:47.477Z,13.80
2022-11-03T14:22:19.024Z,13.90
2022-11-03T14:24:47.604Z,13.80
2022-11-03T14:27:16.360Z,13.80
2022-11-03T14:29:49.846Z,13.80
2022-11-03T14:32:19.797Z,13.70
2022-11-03T14:34:48.889Z,13.70
2022-11-03T14:37:17.606Z,13.70
2022-11-03T14:39:46.216Z,13.60
2022-11-03T14:42:15.992Z,13.60
2022-11-03T14:44:49.677Z,13.60
2022-11-03T14:47:21.838Z,13.60
2022-11-03T14:49:51.166Z,13.50
2022-11-03T14:52:20.464Z,13.50
2022-11-03T14:54:51.193Z,13.50
2022-11-03T14:57:21.166Z,13.40
2022-11-03T14:59:53.613Z,13.40
2022-11-03T15:02:22.781Z,13.40
2022-11-03T15:04:52.095Z,13.30
2022-11-03T15:07:21.025Z,13.20
2022-11-03T15:09:52.733Z,13.20
2022-11-03T15:12:22.187Z,13.20
2022-11-03T15:14:53.233Z,13.20
2022-11-03T15:17:22.724Z,13.10
2022-11-03T15:19:51.583Z,13.00
2022-11-03T15:22:21.192Z,13.00
2022-11-03T15:27:40.236Z,12.90
2022-11-03T15:30:12.275Z,12.90
2022-11-03T15:32:41.599Z,12.90
2022-11-03T15:35:11.527Z,12.80
2022-11-03T15:37:42.467Z,12.80
2022-11-03T15:40:13.907Z,12.70
2022-11-03T15:42:43.350Z,12.70
2022-11-03T15:45:16.668Z,12.70
2022-11-03T15:47:45.821Z,12.60
2022-11-03T15:50:18.164Z,12.60
2022-11-03T15:52:47.348Z,12.50
2022-11-03T15:55:16.745Z,12.50
2022-11-03T15:57:49.269Z,12.50
2022-11-03T16:00:20.648Z,12.40
2022-11-03T16:02:50.215Z,12.40
2022-11-03T16:05:24.941Z,12.30
2022-11-03T16:07:55.134Z,12.40
2022-11-03T16:10:24.425Z,12.40
2022-11-03T16:12:53.466Z,12.30
2022-11-03T16:15:24.266Z,12.30
2022-11-03T16:17:53.608Z,12.20
2022-11-03T16:20:22.976Z,12.20
2022-11-03T16:25:21.990Z,12.10
2022-11-03T16:27:51.388Z,12.10
2022-11-03T16:30:20.311Z,12.00
2022-11-03T16:32:53.233Z,11.90
2022-11-03T16:35:22.740Z,11.90
2022-11-03T16:37:52.082Z,11.90
2022-11-03T16:40:21.460Z,11.90
2022-11-03T16:42:50.778Z,11.90
2022-11-03T16:45:24.443Z,11.80
2022-11-03T16:47:55.203Z,11.80
2022-11-03T16:50:24.771Z,11.80
2022-11-03T16:52:54.084Z,11.80
2022-11-03T16:55:23.868Z,11.80
2022-11-03T16:57:52.905Z,11.70
2022-11-03T17:00:24.440Z,11.80
2022-11-03T17:02:56.661Z,11.70
2022-11-03T17:05:26.305Z,11.70
2022-11-03T17:07:56.293Z,11.70
2022-11-03T17:10:25.679Z,11.70
2022-11-03T17:12:55.459Z,11.70
2022-11-03T17:15:25.381Z,11.60
2022-11-03T17:17:56.151Z,11.60
2022-11-03T17:20:26.678Z,11.60
2022-11-03T17:22:56.498Z,11.60
2022-11-03T17:25:26.651Z,11.60
2022-11-03T17:27:58.612Z,11.60
2022-11-03T17:30:30.312Z,11.60
2022-11-03T17:33:04.478Z,11.60
2022-11-03T17:35:39.651Z,11.60
2022-11-03T17:38:14.341Z,11.60
2022-11-03T17:40:45.100Z,11.60
2022-11-03T17:43:23.108Z,11.60
2022-11-03T17:45:53.015Z,11.60
2022-11-03T17:48:24.767Z,11.60
2022-11-03T17:50:55.926Z,11.60
2022-11-03T17:53:27.177Z,11.60
2022-11-03T17:56:27.944Z,11.60
2022-11-03T17:58:47.708Z,11.70
2022-11-03T18:01:23.154Z,11.70
2022-11-03T18:03:53.498Z,11.70
2022-11-03T18:06:23.100Z,11.70
2022-11-03T18:08:52.537Z,11.70
2022-11-03T18:11:44.140Z,11.70
2022-11-03T18:14:13.467Z,11.70
2022-11-03T18:16:43.180Z,11.70
2022-11-03T18:19:15.920Z,11.70
2022-11-03T18:21:45.614Z,11.70
2022-11-03T18:24:16.079Z,11.60
2022-11-03T18:26:46.733Z,11.60
2022-11-03T18:29:19.774Z,11.60
2022-11-03T18:31:50.971Z,11.50
2022-11-03T18:34:26.475Z,11.60
2022-11-03T18:36:56.402Z,11.60
2022-11-03T18:39:27.270Z,11.60
2022-11-03T18:41:56.817Z,11.50
2022-11-03T18:44:28.724Z,11.50
2022-11-03T18:46:58.480Z,11.50
2022-11-03T18:49:33.622Z,11.50
2022-11-03T18:52:04.582Z,11.50
2022-11-03T18:54:35.801Z,11.50
2022-11-03T18:57:04.933Z,11.40
2022-11-03T18:59:38.019Z,11.50
2022-11-03T19:02:18.496Z,11.50
2022-11-03T19:04:50.025Z,11.50
2022-11-03T19:07:24.364Z,11.40
2022-11-03T19:09:53.910Z,11.50
2022-11-03T19:12:23.059Z,11.40
2022-11-03T19:14:52.656Z,11.40
2022-11-03T19:17:24.832Z,11.30
2022-11-03T19:19:56.857Z,11.30
2022-11-03T19:22:27.697Z,11.30
2022-11-03T19:24:57.149Z,11.20
2022-11-03T19:27:28.907Z,11.20
2022-11-03T19:30:00.830Z,11.30
2022-11-03T19:32:32.720Z,11.30
2022-11-03T19:35:06.756Z,11.20
2022-11-03T19:37:37.554Z,11.20
2022-11-03T19:40:09.484Z,11.20
2022-11-03T19:42:37.821Z,11.10
2022-11-03T19:45:09.357Z,11.10
2022-11-03T19:47:47.932Z,11.10
2022-11-03T19:50:28.712Z,11.10
2022-11-03T19:53:02.941Z,11.00
2022-11-03T19:55:35.567Z,11.00
2022-11-03T19:58:09.400Z,11.00
2022-11-03T20:00:38.570Z,11.00
2022-11-03T20:03:07.245Z,11.00
2022-11-03T20:05:37.628Z,11.00
2022-11-03T20:08:09.479Z,10.90
2022-11-03T20:10:38.793Z,10.90
2022-11-03T20:13:08.651Z,10.90
2022-11-03T20:15:37.371Z,10.80
2022-11-03T20:18:06.758Z,10.90
2022-11-03T20:20:38.948Z,10.80
2022-11-03T20:23:09.794Z,10.90
2022-11-03T20:25:39.219Z,10.80
2022-11-03T20:28:19.375Z,10.90
2022-11-03T20:30:48.889Z,10.90
2022-11-03T20:33:20.647Z,10.90
2022-11-03T20:35:52.858Z,10.90
2022-11-03T20:38:22.996Z,10.90
2022-11-03T20:40:58.481Z,10.90
2022-11-03T20:43:29.399Z,11.00
2022-11-03T20:45:59.058Z,11.10
2022-11-03T20:48:27.656Z,11.10
2022-11-03T20:50:58.358Z,11.10
2022-11-03T20:53:27.307Z,11.00
2022-11-03T20:55:56.023Z,11.00
2022-11-03T20:58:24.580Z,11.00
2022-11-03T21:00:53.188Z,11.00
2022-11-03T21:03:44.937Z,11.10
2022-11-03T21:06:16.713Z,11.00
2022-11-03T21:08:46.648Z,11.10
2022-11-03T21:11:28.417Z,11.10
2022-11-03T21:14:00.130Z,11.00
2022-11-03T21:16:47.717Z,11.00
2022-11-03T21:19:36.109Z,11.00
2022-11-03T21:22:30.728Z,11.00
2022-11-03T21:25:01.681Z,11.00
2022-11-03T21:27:30.180Z,10.90
2022-11-03T21:29:59.957Z,10.90
2022-11-03T21:32:28.947Z,11.00
2022-11-03T21:34:57.536Z,10.90
2022-11-03T21:37:27.429Z,11.00
2022-11-03T21:39:56.005Z,11.00
2022-11-03T21:42:41.920Z,11.00
2022-11-03T21:45:11.297Z,11.10
2022-11-03T21:47:59.809Z,11.10
2022-11-03T21:50:27.289Z,11.00
2022-11-03T21:52:58.939Z,11.00
2022-11-03T21:55:28.588Z,11.00
2022-11-03T21:57:57.078Z,11.00
2022-11-03T22:00:25.601Z,11.10
2022-11-03T22:03:00.118Z,11.10
2022-11-03T22:05:29.066Z,11.10
2022-11-03T22:07:58.969Z,11.00
2022-11-03T22:10:27.403Z,11.00
2022-11-03T22:12:55.944Z,11.10
2022-11-03T22:15:41.709Z,11.10
2022-11-03T22:18:10.459Z,11.10
2022-11-03T22:20:56.455Z,11.20
2022-11-03T22:23:40.178Z,11.20
2022-11-03T22:26:28.644Z,11.20
2022-11-03T22:29:16.948Z,11.20
2022-11-03T22:31:45.498Z,11.20
2022-11-03T22:34:32.101Z,11.20
2022-11-03T22:37:00.572Z,11.20
2022-11-03T22:39:47.934Z,11.20
2022-11-03T22:42:33.837Z,11.30
2022-11-03T22:45:19.895Z,11.20
2022-11-03T22:47:48.394Z,11.20
2022-11-03T22:50:17.187Z,11.20
2022-11-03T22:52:45.716Z,11.20
2022-11-03T22:55:14.979Z,11.20
2022-11-03T22:57:43.491Z,11.20
2022-11-03T23:00:14.069Z,11.20
2022-11-03T23:02:42.610Z,11.20
2022-11-03T23:05:11.429Z,11.20
2022-11-03T23:07:41.303Z,11.20
2022-11-03T23:10:11.040Z,11.20
2022-11-03T23:12:41.009Z,11.20
2022-11-03T23:15:27.720Z,11.20
2022-11-03T23:18:13.699Z,11.20
2022-11-03T23:20:59.890Z,11.20
2022-11-03T23:23:46.245Z,11.20
2022-11-03T23:26:14.890Z,11.20
2022-11-03T23:28:44.954Z,11.20
2022-11-03T23:31:13.775Z,11.20
2022-11-03T23:33:42.704Z,11.20
2022-11-03T23:36:13.125Z,11.20
2022-11-03T23:38:42.709Z,11.20
2022-11-03T23:41:13.425Z,11.10
2022-11-03T23:43:42.387Z,11.10
2022-11-03T23:46:45.875Z,11.10
2022-11-03T23:49:15.177Z,11.20
2022-11-03T23:51:44.044Z,11.20
2022-11-03T23:54:13.622Z,11.20
2022-11-03T23:57:00.429Z,11.20
2022-11-03T23:59:30.287Z,11.10
